sensor_id;sensor_type;location;lat;lon;timestamp;P1;durP1;ratioP1;P2;durP2;ratioP2
35693;SDS011;21812;55.536;37.664;2023-06-14T00:02:10;15.82;;;5.55;;
35693;SDS011;21812;55.536;37.664;2023-06-14T00:04:36;13.48;;;6.30;;
35693;SDS011;21812;55.536;37.664;2023-06-14T00:07:04;11.27;;;5.75;;
35693;SDS011;21812;55.536;37.664;2023-06-14T00:09:33;11.40;;;6.05;;
35693;SDS011;21812;55.536;37.664;2023-06-14T00:11:59;10.25;;;5.97;;
35693;SDS011;21812;55.536;37.664;2023-06-14T00:14:24;15.73;;;6.53;;
35693;SDS011;21812;55.536;37.664;2023-06-14T00:16:50;17.60;;;6.85;;
35693;SDS011;21812;55.536;37.664;2023-06-14T00:19:18;16.50;;;7.05;;
35693;SDS011;21812;55.536;37.664;2023-06-14T00:21:44;15.07;;;6.47;;
35693;SDS011;21812;55.536;37.664;2023-06-14T00:24:11;19.27;;;6.78;;
35693;SDS011;21812;55.536;37.664;2023-06-14T00:26:36;15.15;;;6.72;;
35693;SDS011;21812;55.536;37.664;2023-06-14T00:29:02;12.60;;;5.95;;
35693;SDS011;21812;55.536;37.664;2023-06-14T00:31:28;14.63;;;6.40;;
35693;SDS011;21812;55.536;37.664;2023-06-14T00:33:54;12.07;;;6.03;;
35693;SDS011;21812;55.536;37.664;2023-06-14T00:36:19;14.80;;;6.50;;
35693;SDS011;21812;55.536;37.664;2023-06-14T00:38:45;14.48;;;6.43;;
35693;SDS011;21812;55.536;37.664;2023-06-14T00:41:11;10.68;;;6.35;;
35693;SDS011;21812;55.536;37.664;2023-06-14T00:43:36;12.23;;;6.50;;
35693;SDS011;21812;55.536;37.664;2023-06-14T00:46:02;15.95;;;5.70;;
35693;SDS011;21812;55.536;37.664;2023-06-14T00:48:29;13.38;;;6.13;;
35693;SDS011;21812;55.536;37.664;2023-06-14T00:50:57;14.70;;;6.43;;
35693;SDS011;21812;55.536;37.664;2023-06-14T00:53:23;14.07;;;7.05;;
35693;SDS011;21812;55.536;37.664;2023-06-14T00:55:50;14.68;;;6.22;;
35693;SDS011;21812;55.536;37.664;2023-06-14T00:58:16;13.07;;;6.30;;
35693;SDS011;21812;55.536;37.664;2023-06-14T01:00:42;15.23;;;6.32;;
35693;SDS011;21812;55.536;37.664;2023-06-14T01:03:09;16.35;;;6.45;;
35693;SDS011;21812;55.536;37.664;2023-06-14T01:05:38;13.50;;;5.93;;
35693;SDS011;21812;55.536;37.664;2023-06-14T01:13:36;10.20;;;6.35;;
35693;SDS011;21812;55.536;37.664;2023-06-14T01:16:05;12.73;;;6.00;;
35693;SDS011;21812;55.536;37.664;2023-06-14T01:18:34;12.23;;;6.32;;
35693;SDS011;21812;55.536;37.664;2023-06-14T01:21:01;16.15;;;6.72;;
35693;SDS011;21812;55.536;37.664;2023-06-14T01:23:31;11.95;;;6.22;;
35693;SDS011;21812;55.536;37.664;2023-06-14T01:25:59;13.52;;;6.20;;
35693;SDS011;21812;55.536;37.664;2023-06-14T01:28:30;11.50;;;7.13;;
35693;SDS011;21812;55.536;37.664;2023-06-14T01:31:00;14.48;;;5.95;;
35693;SDS011;21812;55.536;37.664;2023-06-14T01:33:32;16.92;;;6.32;;
35693;SDS011;21812;55.536;37.664;2023-06-14T01:36:00;12.35;;;6.63;;
35693;SDS011;21812;55.536;37.664;2023-06-14T01:38:29;14.07;;;6.20;;
35693;SDS011;21812;55.536;37.664;2023-06-14T01:40:58;10.25;;;6.00;;
35693;SDS011;21812;55.536;37.664;2023-06-14T01:43:25;10.75;;;5.88;;
35693;SDS011;21812;55.536;37.664;2023-06-14T01:45:52;14.32;;;6.10;;
35693;SDS011;21812;55.536;37.664;2023-06-14T01:48:20;10.07;;;6.20;;
35693;SDS011;21812;55.536;37.664;2023-06-14T01:50:50;17.80;;;7.22;;
35693;SDS011;21812;55.536;37.664;2023-06-14T01:53:17;12.68;;;5.80;;
35693;SDS011;21812;55.536;37.664;2023-06-14T01:55:42;13.23;;;6.70;;
35693;SDS011;21812;55.536;37.664;2023-06-14T01:58:09;11.60;;;5.55;;
35693;SDS011;21812;55.536;37.664;2023-06-14T02:00:36;21.60;;;6.70;;
35693;SDS011;21812;55.536;37.664;2023-06-14T02:03:02;14.75;;;6.45;;
35693;SDS011;21812;55.536;37.664;2023-06-14T02:05:29;12.73;;;6.80;;
35693;SDS011;21812;55.536;37.664;2023-06-14T02:07:56;15.40;;;7.05;;
35693;SDS011;21812;55.536;37.664;2023-06-14T02:10:22;18.48;;;7.40;;
35693;SDS011;21812;55.536;37.664;2023-06-14T02:12:48;21.85;;;7.30;;
35693;SDS011;21812;55.536;37.664;2023-06-14T02:15:16;13.23;;;6.05;;
35693;SDS011;21812;55.536;37.664;2023-06-14T02:17:44;10.80;;;6.25;;
35693;SDS011;21812;55.536;37.664;2023-06-14T02:20:11;15.52;;;7.72;;
35693;SDS011;21812;55.536;37.664;2023-06-14T02:22:37;11.90;;;6.63;;
35693;SDS011;21812;55.536;37.664;2023-06-14T02:25:05;13.77;;;6.60;;
35693;SDS011;21812;55.536;37.664;2023-06-14T02:27:32;12.52;;;6.20;;
35693;SDS011;21812;55.536;37.664;2023-06-14T02:29:57;13.80;;;6.40;;
35693;SDS011;21812;55.536;37.664;2023-06-14T02:32:24;13.05;;;6.90;;
35693;SDS011;21812;55.536;37.664;2023-06-14T02:34:51;14.95;;;6.97;;
35693;SDS011;21812;55.536;37.664;2023-06-14T02:37:19;20.05;;;6.95;;
35693;SDS011;21812;55.536;37.664;2023-06-14T02:39:45;17.67;;;6.82;;
35693;SDS011;21812;55.536;37.664;2023-06-14T02:42:11;17.95;;;6.93;;
35693;SDS011;21812;55.536;37.664;2023-06-14T02:44:37;25.52;;;7.32;;
35693;SDS011;21812;55.536;37.664;2023-06-14T02:47:04;17.23;;;6.47;;
35693;SDS011;21812;55.536;37.664;2023-06-14T02:49:30;17.10;;;7.22;;
35693;SDS011;21812;55.536;37.664;2023-06-14T02:51:56;16.50;;;6.45;;
35693;SDS011;21812;55.536;37.664;2023-06-14T02:54:22;14.30;;;6.88;;
35693;SDS011;21812;55.536;37.664;2023-06-14T02:56:48;14.10;;;6.75;;
35693;SDS011;21812;55.536;37.664;2023-06-14T02:59:14;20.27;;;7.43;;
35693;SDS011;21812;55.536;37.664;2023-06-14T03:01:40;19.67;;;7.93;;
35693;SDS011;21812;55.536;37.664;2023-06-14T03:04:10;19.08;;;8.10;;
35693;SDS011;21812;55.536;37.664;2023-06-14T03:06:39;13.85;;;7.40;;
35693;SDS011;21812;55.536;37.664;2023-06-14T03:09:05;18.90;;;8.55;;
35693;SDS011;21812;55.536;37.664;2023-06-14T03:11:34;21.83;;;8.15;;
35693;SDS011;21812;55.536;37.664;2023-06-14T03:14:01;19.75;;;8.40;;
35693;SDS011;21812;55.536;37.664;2023-06-14T03:16:29;23.25;;;9.18;;
35693;SDS011;21812;55.536;37.664;2023-06-14T03:18:58;24.50;;;8.65;;
35693;SDS011;21812;55.536;37.664;2023-06-14T03:21:27;18.67;;;8.52;;
35693;SDS011;21812;55.536;37.664;2023-06-14T03:23:56;20.25;;;8.85;;
35693;SDS011;21812;55.536;37.664;2023-06-14T03:26:23;12.48;;;7.40;;
35693;SDS011;21812;55.536;37.664;2023-06-14T03:28:51;16.98;;;7.15;;
35693;SDS011;21812;55.536;37.664;2023-06-14T03:31:18;10.18;;;5.88;;
35693;SDS011;21812;55.536;37.664;2023-06-14T03:33:45;28.17;;;10.50;;
35693;SDS011;21812;55.536;37.664;2023-06-14T03:36:12;16.65;;;8.45;;
35693;SDS011;21812;55.536;37.664;2023-06-14T03:38:37;15.38;;;8.45;;
35693;SDS011;21812;55.536;37.664;2023-06-14T03:41:04;13.18;;;7.88;;
35693;SDS011;21812;55.536;37.664;2023-06-14T03:43:31;21.20;;;11.10;;
35693;SDS011;21812;55.536;37.664;2023-06-14T03:45:59;10.73;;;5.57;;
35693;SDS011;21812;55.536;37.664;2023-06-14T03:48:27;8.48;;;5.95;;
35693;SDS011;21812;55.536;37.664;2023-06-14T03:50:53;20.25;;;8.68;;
35693;SDS011;21812;55.536;37.664;2023-06-14T03:53:20;25.23;;;9.50;;
35693;SDS011;21812;55.536;37.664;2023-06-14T03:55:49;10.98;;;6.38;;
35693;SDS011;21812;55.536;37.664;2023-06-14T03:58:20;19.48;;;8.32;;
35693;SDS011;21812;55.536;37.664;2023-06-14T04:00:46;9.77;;;5.18;;
35693;SDS011;21812;55.536;37.664;2023-06-14T04:03:12;16.58;;;8.63;;
35693;SDS011;21812;55.536;37.664;2023-06-14T04:05:39;8.88;;;5.45;;
35693;SDS011;21812;55.536;37.664;2023-06-14T04:08:08;13.35;;;6.55;;
35693;SDS011;21812;55.536;37.664;2023-06-14T04:10:35;16.92;;;6.55;;
35693;SDS011;21812;55.536;37.664;2023-06-14T04:13:01;16.17;;;5.70;;
35693;SDS011;21812;55.536;37.664;2023-06-14T04:15:26;11.15;;;4.10;;
35693;SDS011;21812;55.536;37.664;2023-06-14T04:17:56;15.30;;;5.72;;
35693;SDS011;21812;55.536;37.664;2023-06-14T04:20:23;12.45;;;5.63;;
35693;SDS011;21812;55.536;37.664;2023-06-14T04:22:52;8.85;;;4.40;;
35693;SDS011;21812;55.536;37.664;2023-06-14T04:25:18;7.93;;;4.28;;
35693;SDS011;21812;55.536;37.664;2023-06-14T04:27:46;7.32;;;4.25;;
35693;SDS011;21812;55.536;37.664;2023-06-14T04:30:12;10.60;;;5.45;;
35693;SDS011;21812;55.536;37.664;2023-06-14T04:32:47;10.63;;;4.75;;
35693;SDS011;21812;55.536;37.664;2023-06-14T04:35:13;6.22;;;3.78;;
35693;SDS011;21812;55.536;37.664;2023-06-14T04:37:42;7.32;;;3.72;;
35693;SDS011;21812;55.536;37.664;2023-06-14T04:40:09;7.13;;;3.92;;
35693;SDS011;21812;55.536;37.664;2023-06-14T04:42:36;8.77;;;3.70;;
35693;SDS011;21812;55.536;37.664;2023-06-14T04:45:04;5.28;;;3.28;;
35693;SDS011;21812;55.536;37.664;2023-06-14T04:47:32;12.52;;;4.55;;
35693;SDS011;21812;55.536;37.664;2023-06-14T04:50:00;10.68;;;3.75;;
35693;SDS011;21812;55.536;37.664;2023-06-14T04:52:30;9.48;;;3.70;;
35693;SDS011;21812;55.536;37.664;2023-06-14T04:54:57;4.53;;;3.03;;
35693;SDS011;21812;55.536;37.664;2023-06-14T04:57:24;6.65;;;3.42;;
35693;SDS011;21812;55.536;37.664;2023-06-14T04:59:52;6.13;;;3.50;;
35693;SDS011;21812;55.536;37.664;2023-06-14T05:02:24;7.95;;;4.13;;
35693;SDS011;21812;55.536;37.664;2023-06-14T05:04:53;6.18;;;3.22;;
35693;SDS011;21812;55.536;37.664;2023-06-14T05:07:19;6.93;;;3.25;;
35693;SDS011;21812;55.536;37.664;2023-06-14T05:09:47;5.28;;;3.75;;
35693;SDS011;21812;55.536;37.664;2023-06-14T05:12:13;7.75;;;4.25;;
35693;SDS011;21812;55.536;37.664;2023-06-14T05:14:39;10.52;;;5.70;;
35693;SDS011;21812;55.536;37.664;2023-06-14T05:17:06;6.00;;;3.13;;
35693;SDS011;21812;55.536;37.664;2023-06-14T05:19:32;9.57;;;4.30;;
35693;SDS011;21812;55.536;37.664;2023-06-14T05:21:58;5.30;;;3.40;;
35693;SDS011;21812;55.536;37.664;2023-06-14T05:24:23;4.43;;;3.15;;
35693;SDS011;21812;55.536;37.664;2023-06-14T05:26:49;6.93;;;4.70;;
35693;SDS011;21812;55.536;37.664;2023-06-14T05:29:15;6.78;;;3.67;;
35693;SDS011;21812;55.536;37.664;2023-06-14T05:31:41;5.88;;;2.92;;
35693;SDS011;21812;55.536;37.664;2023-06-14T05:34:06;6.35;;;3.30;;
35693;SDS011;21812;55.536;37.664;2023-06-14T05:36:32;5.95;;;3.33;;
35693;SDS011;21812;55.536;37.664;2023-06-14T05:38:58;8.10;;;4.25;;
35693;SDS011;21812;55.536;37.664;2023-06-14T05:41:25;10.35;;;4.68;;
35693;SDS011;21812;55.536;37.664;2023-06-14T05:43:53;5.05;;;2.90;;
35693;SDS011;21812;55.536;37.664;2023-06-14T05:46:19;6.68;;;3.15;;
35693;SDS011;21812;55.536;37.664;2023-06-14T05:48:48;5.75;;;3.55;;
35693;SDS011;21812;55.536;37.664;2023-06-14T05:51:14;9.18;;;5.00;;
35693;SDS011;21812;55.536;37.664;2023-06-14T05:53:47;4.95;;;3.40;;
35693;SDS011;21812;55.536;37.664;2023-06-14T05:56:13;4.63;;;2.67;;
35693;SDS011;21812;55.536;37.664;2023-06-14T05:58:40;8.70;;;3.67;;
35693;SDS011;21812;55.536;37.664;2023-06-14T06:01:06;4.50;;;2.70;;
35693;SDS011;21812;55.536;37.664;2023-06-14T06:03:32;11.40;;;3.95;;
35693;SDS011;21812;55.536;37.664;2023-06-14T06:05:58;5.20;;;2.70;;
35693;SDS011;21812;55.536;37.664;2023-06-14T06:08:25;8.65;;;4.35;;
35693;SDS011;21812;55.536;37.664;2023-06-14T06:10:51;6.30;;;3.22;;
35693;SDS011;21812;55.536;37.664;2023-06-14T06:13:17;5.53;;;3.00;;
35693;SDS011;21812;55.536;37.664;2023-06-14T06:15:43;6.55;;;2.95;;
35693;SDS011;21812;55.536;37.664;2023-06-14T06:18:09;18.80;;;5.47;;
35693;SDS011;21812;55.536;37.664;2023-06-14T06:20:34;9.80;;;3.90;;
35693;SDS011;21812;55.536;37.664;2023-06-14T06:23:01;14.60;;;5.03;;
35693;SDS011;21812;55.536;37.664;2023-06-14T06:25:27;9.50;;;3.20;;
35693;SDS011;21812;55.536;37.664;2023-06-14T06:27:54;53.58;;;20.30;;
35693;SDS011;21812;55.536;37.664;2023-06-14T06:30:24;27.85;;;14.23;;
35693;SDS011;21812;55.536;37.664;2023-06-14T06:32:50;12.65;;;7.75;;
35693;SDS011;21812;55.536;37.664;2023-06-14T06:35:16;8.88;;;5.03;;
35693;SDS011;21812;55.536;37.664;2023-06-14T06:37:42;7.63;;;4.30;;
35693;SDS011;21812;55.536;37.664;2023-06-14T06:40:09;10.15;;;3.67;;
35693;SDS011;21812;55.536;37.664;2023-06-14T06:42:35;9.48;;;3.35;;
35693;SDS011;21812;55.536;37.664;2023-06-14T06:45:05;5.28;;;3.40;;
35693;SDS011;21812;55.536;37.664;2023-06-14T06:47:34;7.15;;;3.50;;
35693;SDS011;21812;55.536;37.664;2023-06-14T06:50:01;7.68;;;3.65;;
35693;SDS011;21812;55.536;37.664;2023-06-14T06:52:32;23.42;;;4.85;;
35693;SDS011;21812;55.536;37.664;2023-06-14T06:54:58;17.10;;;5.10;;
35693;SDS011;21812;55.536;37.664;2023-06-14T06:57:24;12.48;;;4.70;;
35693;SDS011;21812;55.536;37.664;2023-06-14T06:59:49;11.55;;;5.18;;
35693;SDS011;21812;55.536;37.664;2023-06-14T07:02:16;6.82;;;3.83;;
35693;SDS011;21812;55.536;37.664;2023-06-14T07:04:42;10.32;;;4.25;;
35693;SDS011;21812;55.536;37.664;2023-06-14T07:07:08;7.20;;;3.55;;
35693;SDS011;21812;55.536;37.664;2023-06-14T07:09:35;8.48;;;3.15;;
35693;SDS011;21812;55.536;37.664;2023-06-14T07:12:02;5.30;;;3.00;;
35693;SDS011;21812;55.536;37.664;2023-06-14T07:14:27;6.68;;;3.38;;
35693;SDS011;21812;55.536;37.664;2023-06-14T07:16:54;5.15;;;2.47;;
35693;SDS011;21812;55.536;37.664;2023-06-14T07:19:20;7.95;;;2.58;;
35693;SDS011;21812;55.536;37.664;2023-06-14T07:21:46;6.50;;;2.58;;
35693;SDS011;21812;55.536;37.664;2023-06-14T07:24:11;8.25;;;2.92;;
35693;SDS011;21812;55.536;37.664;2023-06-14T07:26:37;5.85;;;2.85;;
35693;SDS011;21812;55.536;37.664;2023-06-14T07:29:03;4.25;;;2.40;;
35693;SDS011;21812;55.536;37.664;2023-06-14T07:31:29;5.75;;;2.83;;
35693;SDS011;21812;55.536;37.664;2023-06-14T07:33:55;4.93;;;3.30;;
35693;SDS011;21812;55.536;37.664;2023-06-14T07:36:21;4.90;;;3.05;;
35693;SDS011;21812;55.536;37.664;2023-06-14T07:38:47;3.15;;;2.65;;
35693;SDS011;21812;55.536;37.664;2023-06-14T07:41:13;7.15;;;4.50;;
35693;SDS011;21812;55.536;37.664;2023-06-14T07:43:38;6.05;;;3.28;;
35693;SDS011;21812;55.536;37.664;2023-06-14T07:46:04;6.78;;;2.83;;
35693;SDS011;21812;55.536;37.664;2023-06-14T07:48:30;8.77;;;2.88;;
35693;SDS011;21812;55.536;37.664;2023-06-14T07:50:56;11.10;;;2.92;;
35693;SDS011;21812;55.536;37.664;2023-06-14T07:53:22;7.25;;;2.97;;
35693;SDS011;21812;55.536;37.664;2023-06-14T07:55:47;5.40;;;3.00;;
35693;SDS011;21812;55.536;37.664;2023-06-14T07:58:14;9.65;;;3.50;;
35693;SDS011;21812;55.536;37.664;2023-06-14T08:00:39;4.88;;;2.67;;
35693;SDS011;21812;55.536;37.664;2023-06-14T08:03:05;9.18;;;3.13;;
35693;SDS011;21812;55.536;37.664;2023-06-14T08:05:31;6.65;;;3.03;;
35693;SDS011;21812;55.536;37.664;2023-06-14T08:07:57;5.43;;;3.03;;
35693;SDS011;21812;55.536;37.664;2023-06-14T08:10:22;6.68;;;3.00;;
35693;SDS011;21812;55.536;37.664;2023-06-14T08:12:48;5.15;;;3.00;;
35693;SDS011;21812;55.536;37.664;2023-06-14T08:15:15;6.85;;;2.90;;
35693;SDS011;21812;55.536;37.664;2023-06-14T08:17:42;6.30;;;3.08;;
35693;SDS011;21812;55.536;37.664;2023-06-14T08:20:09;7.40;;;2.55;;
35693;SDS011;21812;55.536;37.664;2023-06-14T08:22:36;6.43;;;2.75;;
35693;SDS011;21812;55.536;37.664;2023-06-14T08:25:02;3.25;;;2.40;;
35693;SDS011;21812;55.536;37.664;2023-06-14T08:27:31;6.10;;;2.67;;
35693;SDS011;21812;55.536;37.664;2023-06-14T08:29:57;5.43;;;2.75;;
35693;SDS011;21812;55.536;37.664;2023-06-14T08:32:22;6.93;;;2.65;;
35693;SDS011;21812;55.536;37.664;2023-06-14T08:34:48;3.22;;;2.30;;
35693;SDS011;21812;55.536;37.664;2023-06-14T08:37:15;3.72;;;2.20;;
35693;SDS011;21812;55.536;37.664;2023-06-14T08:39:41;5.57;;;2.35;;
35693;SDS011;21812;55.536;37.664;2023-06-14T08:42:07;3.92;;;2.17;;
35693;SDS011;21812;55.536;37.664;2023-06-14T08:44:34;7.22;;;2.70;;
35693;SDS011;21812;55.536;37.664;2023-06-14T08:47:00;11.07;;;2.92;;
35693;SDS011;21812;55.536;37.664;2023-06-14T08:49:26;4.18;;;2.67;;
35693;SDS011;21812;55.536;37.664;2023-06-14T08:51:54;4.30;;;2.67;;
35693;SDS011;21812;55.536;37.664;2023-06-14T08:54:25;6.43;;;3.03;;
35693;SDS011;21812;55.536;37.664;2023-06-14T08:56:54;8.27;;;3.78;;
35693;SDS011;21812;55.536;37.664;2023-06-14T08:59:26;6.90;;;2.67;;
35693;SDS011;21812;55.536;37.664;2023-06-14T09:01:53;6.13;;;2.83;;
35693;SDS011;21812;55.536;37.664;2023-06-14T09:04:23;6.30;;;3.05;;
35693;SDS011;21812;55.536;37.664;2023-06-14T09:06:55;3.65;;;3.08;;
35693;SDS011;21812;55.536;37.664;2023-06-14T09:09:22;3.30;;;2.17;;
35693;SDS011;21812;55.536;37.664;2023-06-14T09:11:51;4.15;;;2.45;;
35693;SDS011;21812;55.536;37.664;2023-06-14T09:14:18;6.70;;;2.60;;
35693;SDS011;21812;55.536;37.664;2023-06-14T09:16:44;4.53;;;2.40;;
35693;SDS011;21812;55.536;37.664;2023-06-14T09:19:20;4.60;;;2.40;;
35693;SDS011;21812;55.536;37.664;2023-06-14T09:21:47;3.55;;;2.30;;
35693;SDS011;21812;55.536;37.664;2023-06-14T09:24:14;3.28;;;2.50;;
35693;SDS011;21812;55.536;37.664;2023-06-14T09:26:39;5.70;;;2.78;;
35693;SDS011;21812;55.536;37.664;2023-06-14T09:29:06;7.15;;;2.90;;
35693;SDS011;21812;55.536;37.664;2023-06-14T09:31:32;4.47;;;2.70;;
35693;SDS011;21812;55.536;37.664;2023-06-14T09:33:58;4.43;;;2.67;;
35693;SDS011;21812;55.536;37.664;2023-06-14T09:36:28;5.50;;;2.60;;
35693;SDS011;21812;55.536;37.664;2023-06-14T09:41:36;5.80;;;1.92;;
35693;SDS011;21812;55.536;37.664;2023-06-14T09:44:03;8.00;;;4.13;;
35693;SDS011;21812;55.536;37.664;2023-06-14T09:46:30;4.10;;;3.10;;
35693;SDS011;21812;55.536;37.664;2023-06-14T09:48:57;5.13;;;2.90;;
35693;SDS011;21812;55.536;37.664;2023-06-14T09:51:23;4.22;;;2.22;;
35693;SDS011;21812;55.536;37.664;2023-06-14T09:53:49;5.50;;;3.40;;
35693;SDS011;21812;55.536;37.664;2023-06-14T09:56:17;3.85;;;2.75;;
35693;SDS011;21812;55.536;37.664;2023-06-14T09:58:54;3.35;;;3.03;;
35693;SDS011;21812;55.536;37.664;2023-06-14T10:01:26;5.05;;;3.05;;
35693;SDS011;21812;55.536;37.664;2023-06-14T10:04:12;2.97;;;2.40;;
35693;SDS011;21812;55.536;37.664;2023-06-14T10:06:41;3.65;;;3.03;;
35693;SDS011;21812;55.536;37.664;2023-06-14T10:09:11;3.85;;;2.75;;
35693;SDS011;21812;55.536;37.664;2023-06-14T10:11:37;6.35;;;3.03;;
35693;SDS011;21812;55.536;37.664;2023-06-14T10:14:10;4.53;;;2.90;;
35693;SDS011;21812;55.536;37.664;2023-06-14T10:16:39;5.80;;;2.50;;
35693;SDS011;21812;55.536;37.664;2023-06-14T10:19:22;4.53;;;2.55;;
35693;SDS011;21812;55.536;37.664;2023-06-14T10:22:04;4.72;;;2.45;;
35693;SDS011;21812;55.536;37.664;2023-06-14T10:24:40;3.85;;;2.50;;
35693;SDS011;21812;55.536;37.664;2023-06-14T10:27:08;6.43;;;2.90;;
35693;SDS011;21812;55.536;37.664;2023-06-14T10:32:21;9.90;;;2.60;;
35693;SDS011;21812;55.536;37.664;2023-06-14T10:35:02;4.53;;;2.53;;
35693;SDS011;21812;55.536;37.664;2023-06-14T10:37:31;3.78;;;3.13;;
35693;SDS011;21812;55.536;37.664;2023-06-14T10:39:56;5.18;;;3.63;;
35693;SDS011;21812;55.536;37.664;2023-06-14T10:42:23;3.75;;;2.70;;
35693;SDS011;21812;55.536;37.664;2023-06-14T10:44:56;3.42;;;2.33;;
35693;SDS011;21812;55.536;37.664;2023-06-14T10:47:32;5.18;;;2.38;;
35693;SDS011;21812;55.536;37.664;2023-06-14T10:50:08;3.75;;;2.83;;
35693;SDS011;21812;55.536;37.664;2023-06-14T10:52:43;5.00;;;2.80;;
35693;SDS011;21812;55.536;37.664;2023-06-14T10:55:10;3.47;;;2.80;;
35693;SDS011;21812;55.536;37.664;2023-06-14T10:57:45;6.10;;;2.47;;
35693;SDS011;21812;55.536;37.664;2023-06-14T11:00:13;3.75;;;2.53;;
35693;SDS011;21812;55.536;37.664;2023-06-14T11:11:07;7.65;;;4.90;;
35693;SDS011;21812;55.536;37.664;2023-06-14T11:13:34;8.18;;;5.30;;
35693;SDS011;21812;55.536;37.664;2023-06-14T11:16:03;9.30;;;4.78;;
35693;SDS011;21812;55.536;37.664;2023-06-14T11:18:36;5.00;;;3.60;;
35693;SDS011;21812;55.536;37.664;2023-06-14T11:21:02;5.65;;;3.25;;
35693;SDS011;21812;55.536;37.664;2023-06-14T11:23:28;3.67;;;2.85;;
35693;SDS011;21812;55.536;37.664;2023-06-14T11:25:54;18.30;;;7.60;;
35693;SDS011;21812;55.536;37.664;2023-06-14T11:28:20;9.18;;;5.15;;
35693;SDS011;21812;55.536;37.664;2023-06-14T11:30:47;7.25;;;4.32;;
35693;SDS011;21812;55.536;37.664;2023-06-14T11:33:17;6.70;;;3.40;;
35693;SDS011;21812;55.536;37.664;2023-06-14T11:35:46;9.98;;;3.13;;
35693;SDS011;21812;55.536;37.664;2023-06-14T11:38:12;5.00;;;3.55;;
35693;SDS011;21812;55.536;37.664;2023-06-14T11:40:38;5.28;;;3.03;;
35693;SDS011;21812;55.536;37.664;2023-06-14T11:43:04;5.40;;;2.75;;
35693;SDS011;21812;55.536;37.664;2023-06-14T11:45:30;5.35;;;2.40;;
35693;SDS011;21812;55.536;37.664;2023-06-14T11:47:57;5.03;;;2.65;;
35693;SDS011;21812;55.536;37.664;2023-06-14T11:50:24;10.07;;;3.42;;
35693;SDS011;21812;55.536;37.664;2023-06-14T11:52:54;4.75;;;3.00;;
35693;SDS011;21812;55.536;37.664;2023-06-14T11:55:22;3.60;;;2.42;;
35693;SDS011;21812;55.536;37.664;2023-06-14T11:57:48;4.32;;;2.83;;
35693;SDS011;21812;55.536;37.664;2023-06-14T12:00:15;7.68;;;2.45;;
35693;SDS011;21812;55.536;37.664;2023-06-14T12:02:42;6.30;;;2.40;;
35693;SDS011;21812;55.536;37.664;2023-06-14T12:05:08;6.70;;;2.53;;
35693;SDS011;21812;55.536;37.664;2023-06-14T12:07:36;3.53;;;2.47;;
35693;SDS011;21812;55.536;37.664;2023-06-14T12:10:06;3.58;;;2.55;;
35693;SDS011;21812;55.536;37.664;2023-06-14T12:12:37;4.30;;;2.40;;
35693;SDS011;21812;55.536;37.664;2023-06-14T12:15:04;3.90;;;2.40;;
35693;SDS011;21812;55.536;37.664;2023-06-14T12:17:35;5.53;;;2.55;;
35693;SDS011;21812;55.536;37.664;2023-06-14T12:20:10;4.88;;;2.03;;
35693;SDS011;21812;55.536;37.664;2023-06-14T12:22:39;4.25;;;2.42;;
35693;SDS011;21812;55.536;37.664;2023-06-14T12:25:22;3.28;;;2.35;;
35693;SDS011;21812;55.536;37.664;2023-06-14T12:28:10;2.45;;;2.25;;
35693;SDS011;21812;55.536;37.664;2023-06-14T12:30:36;4.03;;;2.45;;
35693;SDS011;21812;55.536;37.664;2023-06-14T12:33:03;8.65;;;3.17;;
35693;SDS011;21812;55.536;37.664;2023-06-14T12:35:28;7.00;;;2.70;;
35693;SDS011;21812;55.536;37.664;2023-06-14T12:37:54;8.68;;;3.60;;
35693;SDS011;21812;55.536;37.664;2023-06-14T12:40:22;6.65;;;2.50;;
35693;SDS011;21812;55.536;37.664;2023-06-14T12:42:48;4.97;;;2.75;;
35693;SDS011;21812;55.536;37.664;2023-06-14T12:45:14;8.93;;;2.65;;
35693;SDS011;21812;55.536;37.664;2023-06-14T12:47:40;6.50;;;2.72;;
35693;SDS011;21812;55.536;37.664;2023-06-14T12:50:06;4.15;;;2.95;;
35693;SDS011;21812;55.536;37.664;2023-06-14T12:52:32;8.38;;;2.53;;
35693;SDS011;21812;55.536;37.664;2023-06-14T12:55:04;10.60;;;3.08;;
35693;SDS011;21812;55.536;37.664;2023-06-14T12:57:31;3.67;;;2.95;;
35693;SDS011;21812;55.536;37.664;2023-06-14T12:59:59;6.65;;;4.25;;
35693;SDS011;21812;55.536;37.664;2023-06-14T13:02:25;4.22;;;2.35;;
35693;SDS011;21812;55.536;37.664;2023-06-14T13:04:52;10.93;;;1.63;;
35693;SDS011;21812;55.536;37.664;2023-06-14T13:07:17;5.20;;;2.00;;
35693;SDS011;21812;55.536;37.664;2023-06-14T13:09:43;5.30;;;2.30;;
35693;SDS011;21812;55.536;37.664;2023-06-14T13:12:12;3.65;;;2.20;;
35693;SDS011;21812;55.536;37.664;2023-06-14T13:14:38;3.60;;;1.92;;
35693;SDS011;21812;55.536;37.664;2023-06-14T13:17:07;3.45;;;1.85;;
35693;SDS011;21812;55.536;37.664;2023-06-14T13:19:34;2.10;;;1.90;;
35693;SDS011;21812;55.536;37.664;2023-06-14T13:22:00;4.85;;;1.63;;
35693;SDS011;21812;55.536;37.664;2023-06-14T13:24:26;7.40;;;2.47;;
35693;SDS011;21812;55.536;37.664;2023-06-14T13:26:52;2.15;;;1.80;;
35693;SDS011;21812;55.536;37.664;2023-06-14T13:29:17;6.28;;;2.78;;
35693;SDS011;21812;55.536;37.664;2023-06-14T13:31:43;2.38;;;1.85;;
35693;SDS011;21812;55.536;37.664;2023-06-14T13:34:09;3.63;;;2.40;;
35693;SDS011;21812;55.536;37.664;2023-06-14T13:36:34;3.90;;;2.05;;
35693;SDS011;21812;55.536;37.664;2023-06-14T13:39:00;3.63;;;2.28;;
35693;SDS011;21812;55.536;37.664;2023-06-14T13:41:27;5.43;;;2.35;;
35693;SDS011;21812;55.536;37.664;2023-06-14T13:43:59;4.80;;;1.90;;
35693;SDS011;21812;55.536;37.664;2023-06-14T13:46:25;6.50;;;2.10;;
35693;SDS011;21812;55.536;37.664;2023-06-14T13:48:51;4.63;;;2.83;;
35693;SDS011;21812;55.536;37.664;2023-06-14T13:51:17;3.47;;;2.40;;
35693;SDS011;21812;55.536;37.664;2023-06-14T13:53:48;4.93;;;2.47;;
35693;SDS011;21812;55.536;37.664;2023-06-14T13:56:15;4.25;;;2.08;;
35693;SDS011;21812;55.536;37.664;2023-06-14T13:58:41;4.30;;;3.63;;
35693;SDS011;21812;55.536;37.664;2023-06-14T14:01:07;5.00;;;3.00;;
35693;SDS011;21812;55.536;37.664;2023-06-14T14:03:34;4.38;;;2.40;;
35693;SDS011;21812;55.536;37.664;2023-06-14T14:06:00;4.05;;;2.63;;
35693;SDS011;21812;55.536;37.664;2023-06-14T14:08:27;4.43;;;3.17;;
35693;SDS011;21812;55.536;37.664;2023-06-14T14:10:53;4.25;;;2.78;;
35693;SDS011;21812;55.536;37.664;2023-06-14T14:13:19;5.85;;;2.78;;
35693;SDS011;21812;55.536;37.664;2023-06-14T14:15:46;4.47;;;2.85;;
35693;SDS011;21812;55.536;37.664;2023-06-14T14:18:12;4.63;;;3.00;;
35693;SDS011;21812;55.536;37.664;2023-06-14T14:20:38;4.35;;;2.75;;
35693;SDS011;21812;55.536;37.664;2023-06-14T14:23:04;3.00;;;2.53;;
35693;SDS011;21812;55.536;37.664;2023-06-14T14:25:30;4.03;;;2.63;;
35693;SDS011;21812;55.536;37.664;2023-06-14T14:27:55;3.35;;;2.75;;
35693;SDS011;21812;55.536;37.664;2023-06-14T14:30:21;5.15;;;2.85;;
35693;SDS011;21812;55.536;37.664;2023-06-14T14:32:49;3.08;;;2.30;;
35693;SDS011;21812;55.536;37.664;2023-06-14T14:35:16;4.80;;;2.67;;
35693;SDS011;21812;55.536;37.664;2023-06-14T14:37:43;4.75;;;2.75;;
35693;SDS011;21812;55.536;37.664;2023-06-14T14:40:09;5.50;;;2.60;;
35693;SDS011;21812;55.536;37.664;2023-06-14T14:42:35;3.97;;;2.80;;
35693;SDS011;21812;55.536;37.664;2023-06-14T14:45:02;3.95;;;3.17;;
35693;SDS011;21812;55.536;37.664;2023-06-14T14:47:32;6.22;;;3.05;;
35693;SDS011;21812;55.536;37.664;2023-06-14T14:49:58;6.07;;;2.67;;
35693;SDS011;21812;55.536;37.664;2023-06-14T14:52:24;2.67;;;2.42;;